sensor_id;sensor_type;location;lat;lon;timestamp;P1;durP1;ratioP1;P2;durP2;ratioP2
77304;SDS011;66364;52.622;7.746;2023-04-24T00:00:38;2.20;;;2.10;;
77304;SDS011;66364;52.622;7.746;2023-04-24T00:02:39;2.80;;;2.70;;
77304;SDS011;66364;52.622;7.746;2023-04-24T00:04:55;2.90;;;2.70;;
77304;SDS011;66364;52.622;7.746;2023-04-24T00:06:57;3.15;;;2.70;;
77304;SDS011;66364;52.622;7.746;2023-04-24T00:09:00;3.20;;;2.90;;
77304;SDS011;66364;52.622;7.746;2023-04-24T00:11:01;2.95;;;2.75;;
77304;SDS011;66364;52.622;7.746;2023-04-24T00:13:11;3.00;;;2.80;;
77304;SDS011;66364;52.622;7.746;2023-04-24T00:15:11;2.40;;;2.30;;
77304;SDS011;66364;52.622;7.746;2023-04-24T00:17:13;2.90;;;2.70;;
77304;SDS011;66364;52.622;7.746;2023-04-24T00:19:14;2.52;;;2.35;;
77304;SDS011;66364;52.622;7.746;2023-04-24T00:21:15;2.47;;;2.37;;
77304;SDS011;66364;52.622;7.746;2023-04-24T00:23:16;2.65;;;2.40;;
77304;SDS011;66364;52.622;7.746;2023-04-24T00:25:17;2.40;;;2.30;;
77304;SDS011;66364;52.622;7.746;2023-04-24T00:27:18;2.70;;;2.12;;
77304;SDS011;66364;52.622;7.746;2023-04-24T00:29:20;2.33;;;2.02;;
77304;SDS011;66364;52.622;7.746;2023-04-24T00:31:27;2.23;;;2.13;;
77304;SDS011;66364;52.622;7.746;2023-04-24T00:33:28;2.02;;;1.92;;
77304;SDS011;66364;52.622;7.746;2023-04-24T00:35:28;3.00;;;2.60;;
77304;SDS011;66364;52.622;7.746;2023-04-24T00:37:29;2.92;;;2.72;;
77304;SDS011;66364;52.622;7.746;2023-04-24T00:39:30;2.87;;;2.67;;
77304;SDS011;66364;52.622;7.746;2023-04-24T00:43:36;3.90;;;3.70;;
77304;SDS011;66364;52.622;7.746;2023-04-24T00:45:38;4.80;;;4.42;;
77304;SDS011;66364;52.622;7.746;2023-04-24T00:47:39;5.47;;;5.08;;
77304;SDS011;66364;52.622;7.746;2023-04-24T00:49:42;5.25;;;4.95;;
77304;SDS011;66364;52.622;7.746;2023-04-24T00:51:43;6.30;;;5.30;;
77304;SDS011;66364;52.622;7.746;2023-04-24T00:53:44;5.30;;;5.00;;
77304;SDS011;66364;52.622;7.746;2023-04-24T00:55:44;4.77;;;4.47;;
77304;SDS011;66364;52.622;7.746;2023-04-24T00:57:46;5.00;;;4.70;;
77304;SDS011;66364;52.622;7.746;2023-04-24T00:59:48;5.67;;;5.28;;
77304;SDS011;66364;52.622;7.746;2023-04-24T01:01:49;5.47;;;5.17;;
77304;SDS011;66364;52.622;7.746;2023-04-24T01:03:51;5.12;;;4.72;;
77304;SDS011;66364;52.622;7.746;2023-04-24T01:05:53;5.75;;;5.33;;
77304;SDS011;66364;52.622;7.746;2023-04-24T01:07:55;4.50;;;4.20;;
77304;SDS011;66364;52.622;7.746;2023-04-24T01:09:57;5.12;;;4.72;;
77304;SDS011;66364;52.622;7.746;2023-04-24T01:11:58;4.70;;;4.30;;
77304;SDS011;66364;52.622;7.746;2023-04-24T01:13:59;4.55;;;4.25;;
77304;SDS011;66364;52.622;7.746;2023-04-24T01:16:01;3.70;;;3.47;;
77304;SDS011;66364;52.622;7.746;2023-04-24T01:18:03;4.12;;;3.80;;
77304;SDS011;66364;52.622;7.746;2023-04-24T01:20:04;4.83;;;4.40;;
77304;SDS011;66364;52.622;7.746;2023-04-24T01:22:13;3.85;;;3.65;;
77304;SDS011;66364;52.622;7.746;2023-04-24T01:24:15;4.50;;;4.20;;
77304;SDS011;66364;52.622;7.746;2023-04-24T01:26:17;3.95;;;3.65;;
77304;SDS011;66364;52.622;7.746;2023-04-24T01:28:18;4.03;;;3.62;;
77304;SDS011;66364;52.622;7.746;2023-04-24T01:30:19;4.70;;;4.20;;
77304;SDS011;66364;52.622;7.746;2023-04-24T01:32:20;5.08;;;4.67;;
77304;SDS011;66364;52.622;7.746;2023-04-24T01:34:22;4.90;;;4.53;;
77304;SDS011;66364;52.622;7.746;2023-04-24T01:36:23;5.58;;;4.35;;
77304;SDS011;66364;52.622;7.746;2023-04-24T01:38:45;4.55;;;4.15;;
77304;SDS011;66364;52.622;7.746;2023-04-24T01:40:46;5.30;;;4.80;;
77304;SDS011;66364;52.622;7.746;2023-04-24T01:42:48;4.87;;;4.50;;
77304;SDS011;66364;52.622;7.746;2023-04-24T01:44:49;5.50;;;5.10;;
77304;SDS011;66364;52.622;7.746;2023-04-24T01:49:11;6.37;;;5.87;;
77304;SDS011;66364;52.622;7.746;2023-04-24T01:51:12;5.03;;;4.63;;
77304;SDS011;66364;52.622;7.746;2023-04-24T01:53:13;6.35;;;5.85;;
77304;SDS011;66364;52.622;7.746;2023-04-24T01:55:15;7.22;;;6.67;;
77304;SDS011;66364;52.622;7.746;2023-04-24T01:57:16;7.70;;;7.05;;
77304;SDS011;66364;52.622;7.746;2023-04-24T01:59:18;6.35;;;5.85;;
77304;SDS011;66364;52.622;7.746;2023-04-24T02:01:21;6.20;;;5.70;;
77304;SDS011;66364;52.622;7.746;2023-04-24T02:03:25;6.12;;;5.60;;
77304;SDS011;66364;52.622;7.746;2023-04-24T02:05:27;5.25;;;4.75;;
77304;SDS011;66364;52.622;7.746;2023-04-24T02:07:28;6.58;;;6.05;;
77304;SDS011;66364;52.622;7.746;2023-04-24T02:09:29;7.00;;;6.30;;
77304;SDS011;66364;52.622;7.746;2023-04-24T02:11:30;5.63;;;5.13;;
77304;SDS011;66364;52.622;7.746;2023-04-24T02:13:30;5.30;;;4.90;;
77304;SDS011;66364;52.622;7.746;2023-04-24T02:15:33;7.55;;;6.78;;
77304;SDS011;66364;52.622;7.746;2023-04-24T02:17:33;6.95;;;6.25;;
77304;SDS011;66364;52.622;7.746;2023-04-24T02:19:34;6.90;;;6.30;;
77304;SDS011;66364;52.622;7.746;2023-04-24T02:21:35;5.83;;;5.33;;
77304;SDS011;66364;52.622;7.746;2023-04-24T02:23:36;5.72;;;5.28;;
77304;SDS011;66364;52.622;7.746;2023-04-24T02:25:37;6.50;;;6.00;;
77304;SDS011;66364;52.622;7.746;2023-04-24T02:27:38;5.83;;;5.30;;
77304;SDS011;66364;52.622;7.746;2023-04-24T02:29:39;5.30;;;4.90;;
77304;SDS011;66364;52.622;7.746;2023-04-24T02:31:40;4.65;;;4.25;;
77304;SDS011;66364;52.622;7.746;2023-04-24T02:33:41;5.33;;;4.90;;
77304;SDS011;66364;52.622;7.746;2023-04-24T02:35:42;4.83;;;4.43;;
77304;SDS011;66364;52.622;7.746;2023-04-24T02:37:43;4.47;;;4.07;;
77304;SDS011;66364;52.622;7.746;2023-04-24T02:39:44;4.47;;;4.07;;
77304;SDS011;66364;52.622;7.746;2023-04-24T02:41:45;5.30;;;4.80;;
77304;SDS011;66364;52.622;7.746;2023-04-24T02:43:47;4.33;;;4.03;;
77304;SDS011;66364;52.622;7.746;2023-04-24T02:45:48;5.13;;;4.73;;
77304;SDS011;66364;52.622;7.746;2023-04-24T02:47:48;8.60;;;4.50;;
77304;SDS011;66364;52.622;7.746;2023-04-24T02:51:53;4.42;;;4.12;;
77304;SDS011;66364;52.622;7.746;2023-04-24T02:53:54;3.90;;;3.60;;
77304;SDS011;66364;52.622;7.746;2023-04-24T02:55:56;6.30;;;5.25;;
77304;SDS011;66364;52.622;7.746;2023-04-24T02:57:57;4.70;;;4.30;;
77304;SDS011;66364;52.622;7.746;2023-04-24T02:59:58;5.28;;;4.80;;
77304;SDS011;66364;52.622;7.746;2023-04-24T03:01:59;6.87;;;5.20;;
77304;SDS011;66364;52.622;7.746;2023-04-24T03:04:00;5.45;;;5.05;;
77304;SDS011;66364;52.622;7.746;2023-04-24T03:06:01;6.55;;;6.05;;
77304;SDS011;66364;52.622;7.746;2023-04-24T03:08:02;6.28;;;5.78;;
77304;SDS011;66364;52.622;7.746;2023-04-24T03:10:08;8.83;;;7.92;;
77304;SDS011;66364;52.622;7.746;2023-04-24T03:12:09;8.00;;;7.22;;
77304;SDS011;66364;52.622;7.746;2023-04-24T03:14:11;7.25;;;6.60;;
77304;SDS011;66364;52.622;7.746;2023-04-24T03:16:12;7.10;;;6.50;;
77304;SDS011;66364;52.622;7.746;2023-04-24T03:18:13;6.28;;;5.70;;
77304;SDS011;66364;52.622;7.746;2023-04-24T03:20:14;7.92;;;6.60;;
77304;SDS011;66364;52.622;7.746;2023-04-24T03:22:16;7.08;;;6.47;;
77304;SDS011;66364;52.622;7.746;2023-04-24T03:24:17;7.40;;;6.80;;
77304;SDS011;66364;52.622;7.746;2023-04-24T03:26:18;7.30;;;6.60;;
77304;SDS011;66364;52.622;7.746;2023-04-24T03:28:19;7.65;;;6.95;;
77304;SDS011;66364;52.622;7.746;2023-04-24T03:30:20;8.38;;;7.50;;
77304;SDS011;66364;52.622;7.746;2023-04-24T03:32:23;11.45;;;6.72;;
77304;SDS011;66364;52.622;7.746;2023-04-24T03:34:24;8.48;;;7.67;;
77304;SDS011;66364;52.622;7.746;2023-04-24T03:36:25;8.13;;;7.10;;
77304;SDS011;66364;52.622;7.746;2023-04-24T03:38:26;7.77;;;7.07;;
77304;SDS011;66364;52.622;7.746;2023-04-24T03:40:27;7.37;;;6.77;;
77304;SDS011;66364;52.622;7.746;2023-04-24T03:42:28;6.90;;;6.30;;
77304;SDS011;66364;52.622;7.746;2023-04-24T03:44:29;7.83;;;7.12;;
77304;SDS011;66364;52.622;7.746;2023-04-24T03:46:30;6.67;;;6.07;;
77304;SDS011;66364;52.622;7.746;2023-04-24T03:48:31;8.03;;;7.30;;
77304;SDS011;66364;52.622;7.746;2023-04-24T03:52:36;8.25;;;7.55;;
77304;SDS011;66364;52.622;7.746;2023-04-24T03:54:37;8.30;;;7.60;;
77304;SDS011;66364;52.622;7.746;2023-04-24T03:56:38;8.05;;;7.35;;
77304;SDS011;66364;52.622;7.746;2023-04-24T03:58:39;7.75;;;6.83;;
77304;SDS011;66364;52.622;7.746;2023-04-24T04:00:40;8.38;;;7.67;;
77304;SDS011;66364;52.622;7.746;2023-04-24T04:02:41;8.80;;;8.07;;
77304;SDS011;66364;52.622;7.746;2023-04-24T04:04:42;9.30;;;8.40;;
77304;SDS011;66364;52.622;7.746;2023-04-24T04:06:43;10.43;;;9.53;;
77304;SDS011;66364;52.622;7.746;2023-04-24T04:08:44;9.73;;;8.73;;
77304;SDS011;66364;52.622;7.746;2023-04-24T04:10:44;9.70;;;8.80;;
77304;SDS011;66364;52.622;7.746;2023-04-24T04:12:45;10.30;;;9.30;;
77304;SDS011;66364;52.622;7.746;2023-04-24T04:14:46;11.17;;;10.00;;
77304;SDS011;66364;52.622;7.746;2023-04-24T04:16:48;12.60;;;11.22;;
77304;SDS011;66364;52.622;7.746;2023-04-24T04:18:54;10.98;;;9.98;;
77304;SDS011;66364;52.622;7.746;2023-04-24T04:20:55;11.18;;;10.13;;
77304;SDS011;66364;52.622;7.746;2023-04-24T04:22:57;12.03;;;9.53;;
77304;SDS011;66364;52.622;7.746;2023-04-24T04:24:58;11.83;;;10.75;;
77304;SDS011;66364;52.622;7.746;2023-04-24T04:26:59;12.50;;;11.18;;
77304;SDS011;66364;52.622;7.746;2023-04-24T04:29:00;11.53;;;10.50;;
77304;SDS011;66364;52.622;7.746;2023-04-24T04:31:01;13.25;;;12.07;;
77304;SDS011;66364;52.622;7.746;2023-04-24T04:33:02;15.13;;;12.47;;
77304;SDS011;66364;52.622;7.746;2023-04-24T04:35:03;12.30;;;11.15;;
77304;SDS011;66364;52.622;7.746;2023-04-24T04:37:05;12.20;;;10.75;;
77304;SDS011;66364;52.622;7.746;2023-04-24T04:39:06;12.37;;;10.93;;
77304;SDS011;66364;52.622;7.746;2023-04-24T04:41:07;12.18;;;10.98;;
77304;SDS011;66364;52.622;7.746;2023-04-24T04:43:08;17.05;;;12.50;;
77304;SDS011;66364;52.622;7.746;2023-04-24T04:45:09;11.43;;;10.33;;
77304;SDS011;66364;52.622;7.746;2023-04-24T04:47:19;12.45;;;11.30;;
77304;SDS011;66364;52.622;7.746;2023-04-24T04:49:22;12.53;;;11.08;;
77304;SDS011;66364;52.622;7.746;2023-04-24T04:51:24;12.00;;;10.80;;
77304;SDS011;66364;52.622;7.746;2023-04-24T04:53:25;11.60;;;10.47;;
77304;SDS011;66364;52.622;7.746;2023-04-24T04:55:25;13.70;;;12.27;;
77304;SDS011;66364;52.622;7.746;2023-04-24T04:57:27;11.10;;;10.03;;
77304;SDS011;66364;52.622;7.746;2023-04-24T04:59:28;11.80;;;10.60;;
77304;SDS011;66364;52.622;7.746;2023-04-24T05:01:29;12.07;;;10.13;;
77304;SDS011;66364;52.622;7.746;2023-04-24T05:03:30;12.30;;;11.12;;
77304;SDS011;66364;52.622;7.746;2023-04-24T05:05:31;12.80;;;11.30;;
77304;SDS011;66364;52.622;7.746;2023-04-24T05:07:33;13.90;;;12.23;;
77304;SDS011;66364;52.622;7.746;2023-04-24T05:09:34;13.38;;;12.00;;
77304;SDS011;66364;52.622;7.746;2023-04-24T05:11:35;11.77;;;10.63;;
77304;SDS011;66364;52.622;7.746;2023-04-24T05:13:37;13.00;;;11.70;;
77304;SDS011;66364;52.622;7.746;2023-04-24T05:15:37;14.53;;;13.23;;
77304;SDS011;66364;52.622;7.746;2023-04-24T05:17:39;13.15;;;11.85;;
77304;SDS011;66364;52.622;7.746;2023-04-24T05:19:40;13.20;;;11.90;;
77304;SDS011;66364;52.622;7.746;2023-04-24T05:21:42;13.83;;;12.47;;
77304;SDS011;66364;52.622;7.746;2023-04-24T05:23:43;13.72;;;12.33;;
77304;SDS011;66364;52.622;7.746;2023-04-24T05:25:44;16.03;;;14.43;;
77304;SDS011;66364;52.622;7.746;2023-04-24T05:27:47;15.98;;;14.38;;
77304;SDS011;66364;52.622;7.746;2023-04-24T05:29:48;15.30;;;13.80;;
77304;SDS011;66364;52.622;7.746;2023-04-24T05:31:49;15.20;;;13.60;;
77304;SDS011;66364;52.622;7.746;2023-04-24T05:33:53;19.10;;;12.27;;
77304;SDS011;66364;52.622;7.746;2023-04-24T05:35:56;15.85;;;13.68;;
77304;SDS011;66364;52.622;7.746;2023-04-24T05:37:57;18.73;;;13.73;;
77304;SDS011;66364;52.622;7.746;2023-04-24T05:39:58;14.80;;;13.30;;
77304;SDS011;66364;52.622;7.746;2023-04-24T05:42:01;16.48;;;14.00;;
77304;SDS011;66364;52.622;7.746;2023-04-24T05:44:04;15.90;;;13.50;;
77304;SDS011;66364;52.622;7.746;2023-04-24T05:46:05;14.95;;;12.75;;
77304;SDS011;66364;52.622;7.746;2023-04-24T05:48:07;15.55;;;14.05;;
77304;SDS011;66364;52.622;7.746;2023-04-24T05:50:10;14.15;;;12.90;;
77304;SDS011;66364;52.622;7.746;2023-04-24T05:52:12;15.25;;;13.75;;
77304;SDS011;66364;52.622;7.746;2023-04-24T05:54:13;15.40;;;11.60;;
77304;SDS011;66364;52.622;7.746;2023-04-24T05:56:15;15.60;;;14.10;;
77304;SDS011;66364;52.622;7.746;2023-04-24T05:58:18;14.00;;;12.45;;
77304;SDS011;66364;52.622;7.746;2023-04-24T06:00:20;14.38;;;12.98;;
77304;SDS011;66364;52.622;7.746;2023-04-24T06:04:44;14.75;;;13.30;;
77304;SDS011;66364;52.622;7.746;2023-04-24T06:06:47;12.82;;;11.70;;
77304;SDS011;66364;52.622;7.746;2023-04-24T06:08:50;13.08;;;11.78;;
77304;SDS011;66364;52.622;7.746;2023-04-24T06:10:53;13.70;;;12.07;;
77304;SDS011;66364;52.622;7.746;2023-04-24T06:12:55;13.22;;;11.93;;
77304;SDS011;66364;52.622;7.746;2023-04-24T06:14:57;13.18;;;11.88;;
77304;SDS011;66364;52.622;7.746;2023-04-24T06:16:59;14.10;;;12.75;;
77304;SDS011;66364;52.622;7.746;2023-04-24T06:19:02;13.30;;;11.93;;
77304;SDS011;66364;52.622;7.746;2023-04-24T06:21:05;13.85;;;12.47;;
77304;SDS011;66364;52.622;7.746;2023-04-24T06:23:07;13.85;;;12.58;;
77304;SDS011;66364;52.622;7.746;2023-04-24T06:25:08;17.23;;;15.25;;
77304;SDS011;66364;52.622;7.746;2023-04-24T06:27:09;14.78;;;12.88;;
77304;SDS011;66364;52.622;7.746;2023-04-24T06:29:11;14.07;;;12.78;;
77304;SDS011;66364;52.622;7.746;2023-04-24T06:31:12;13.10;;;11.63;;
77304;SDS011;66364;52.622;7.746;2023-04-24T06:33:16;14.95;;;13.55;;
77304;SDS011;66364;52.622;7.746;2023-04-24T06:35:18;17.85;;;12.70;;
77304;SDS011;66364;52.622;7.746;2023-04-24T06:37:20;12.28;;;11.12;;
77304;SDS011;66364;52.622;7.746;2023-04-24T06:39:22;13.20;;;11.80;;
77304;SDS011;66364;52.622;7.746;2023-04-24T06:41:23;13.63;;;12.33;;
77304;SDS011;66364;52.622;7.746;2023-04-24T06:43:24;14.10;;;12.07;;
77304;SDS011;66364;52.622;7.746;2023-04-24T06:45:25;13.57;;;12.27;;
77304;SDS011;66364;52.622;7.746;2023-04-24T06:47:29;13.60;;;12.03;;
77304;SDS011;66364;52.622;7.746;2023-04-24T06:49:30;13.75;;;12.35;;
77304;SDS011;66364;52.622;7.746;2023-04-24T06:51:31;17.20;;;13.67;;
77304;SDS011;66364;52.622;7.746;2023-04-24T06:53:32;15.48;;;13.90;;
77304;SDS011;66364;52.622;7.746;2023-04-24T06:55:35;16.48;;;14.55;;
77304;SDS011;66364;52.622;7.746;2023-04-24T06:57:36;13.03;;;11.90;;
77304;SDS011;66364;52.622;7.746;2023-04-24T06:59:39;22.07;;;13.53;;
77304;SDS011;66364;52.622;7.746;2023-04-24T07:01:40;13.10;;;11.80;;
77304;SDS011;66364;52.622;7.746;2023-04-24T07:03:40;15.47;;;13.87;;
77304;SDS011;66364;52.622;7.746;2023-04-24T07:05:41;13.67;;;12.40;;
77304;SDS011;66364;52.622;7.746;2023-04-24T07:07:43;13.65;;;12.15;;
77304;SDS011;66364;52.622;7.746;2023-04-24T07:09:44;15.53;;;11.87;;
77304;SDS011;66364;52.622;7.746;2023-04-24T07:11:45;14.43;;;12.53;;
77304;SDS011;66364;52.622;7.746;2023-04-24T07:13:46;12.65;;;11.50;;
77304;SDS011;66364;52.622;7.746;2023-04-24T07:15:47;11.73;;;10.50;;
77304;SDS011;66364;52.622;7.746;2023-04-24T07:17:48;12.40;;;11.22;;
77304;SDS011;66364;52.622;7.746;2023-04-24T07:19:50;10.88;;;9.95;;
77304;SDS011;66364;52.622;7.746;2023-04-24T07:21:51;11.10;;;10.10;;
77304;SDS011;66364;52.622;7.746;2023-04-24T07:23:53;11.78;;;9.48;;
77304;SDS011;66364;52.622;7.746;2023-04-24T07:25:54;10.90;;;9.90;;
77304;SDS011;66364;52.622;7.746;2023-04-24T07:27:56;10.63;;;9.63;;
77304;SDS011;66364;52.622;7.746;2023-04-24T07:29:58;11.03;;;8.55;;
77304;SDS011;66364;52.622;7.746;2023-04-24T07:31:58;10.23;;;9.23;;
77304;SDS011;66364;52.622;7.746;2023-04-24T07:33:59;12.90;;;9.40;;
77304;SDS011;66364;52.622;7.746;2023-04-24T07:36:01;10.65;;;9.65;;
77304;SDS011;66364;52.622;7.746;2023-04-24T07:38:02;9.75;;;8.95;;
77304;SDS011;66364;52.622;7.746;2023-04-24T07:40:03;9.70;;;8.33;;
77304;SDS011;66364;52.622;7.746;2023-04-24T07:42:04;10.18;;;9.18;;
77304;SDS011;66364;52.622;7.746;2023-04-24T07:44:05;13.13;;;10.57;;
77304;SDS011;66364;52.622;7.746;2023-04-24T07:46:10;10.80;;;9.80;;
77304;SDS011;66364;52.622;7.746;2023-04-24T07:48:11;9.78;;;8.98;;
77304;SDS011;66364;52.622;7.746;2023-04-24T07:50:12;10.17;;;9.20;;
77304;SDS011;66364;52.622;7.746;2023-04-24T07:52:14;11.97;;;9.90;;
77304;SDS011;66364;52.622;7.746;2023-04-24T07:54:15;11.60;;;10.13;;
77304;SDS011;66364;52.622;7.746;2023-04-24T07:56:16;10.65;;;9.63;;
77304;SDS011;66364;52.622;7.746;2023-04-24T07:58:18;10.20;;;9.20;;
77304;SDS011;66364;52.622;7.746;2023-04-24T08:00:19;10.15;;;9.15;;
77304;SDS011;66364;52.622;7.746;2023-04-24T08:02:21;11.48;;;10.08;;
77304;SDS011;66364;52.622;7.746;2023-04-24T08:04:22;12.45;;;10.32;;
77304;SDS011;66364;52.622;7.746;2023-04-24T08:06:23;9.80;;;8.83;;
77304;SDS011;66364;52.622;7.746;2023-04-24T08:08:25;11.00;;;10.00;;
77304;SDS011;66364;52.622;7.746;2023-04-24T08:10:26;10.10;;;9.10;;
77304;SDS011;66364;52.622;7.746;2023-04-24T08:12:28;9.73;;;8.65;;
77304;SDS011;66364;52.622;7.746;2023-04-24T08:14:29;11.40;;;10.32;;
77304;SDS011;66364;52.622;7.746;2023-04-24T08:16:32;11.37;;;10.27;;
77304;SDS011;66364;52.622;7.746;2023-04-24T08:18:33;9.05;;;8.25;;
77304;SDS011;66364;52.622;7.746;2023-04-24T08:20:35;9.90;;;8.90;;
77304;SDS011;66364;52.622;7.746;2023-04-24T08:22:37;10.20;;;8.50;;
77304;SDS011;66364;52.622;7.746;2023-04-24T08:24:39;8.55;;;7.85;;
77304;SDS011;66364;52.622;7.746;2023-04-24T08:26:40;8.33;;;7.53;;
77304;SDS011;66364;52.622;7.746;2023-04-24T08:28:41;9.50;;;8.70;;
77304;SDS011;66364;52.622;7.746;2023-04-24T08:30:42;9.75;;;8.73;;
77304;SDS011;66364;52.622;7.746;2023-04-24T08:32:44;9.03;;;8.13;;
77304;SDS011;66364;52.622;7.746;2023-04-24T08:34:45;8.77;;;8.07;;
77304;SDS011;66364;52.622;7.746;2023-04-24T08:36:46;9.48;;;8.45;;
77304;SDS011;66364;52.622;7.746;2023-04-24T08:38:48;10.28;;;8.30;;
77304;SDS011;66364;52.622;7.746;2023-04-24T08:40:49;7.42;;;6.65;;
77304;SDS011;66364;52.622;7.746;2023-04-24T08:42:50;8.50;;;7.60;;
77304;SDS011;66364;52.622;7.746;2023-04-24T08:44:54;8.43;;;7.62;;
77304;SDS011;66364;52.622;7.746;2023-04-24T08:46:58;7.90;;;7.12;;
77304;SDS011;66364;52.622;7.746;2023-04-24T08:49:00;8.28;;;7.42;;
77304;SDS011;66364;52.622;7.746;2023-04-24T08:51:02;9.05;;;8.18;;
77304;SDS011;66364;52.622;7.746;2023-04-24T08:53:04;9.15;;;8.30;;
77304;SDS011;66364;52.622;7.746;2023-04-24T08:55:07;7.92;;;7.22;;
77304;SDS011;66364;52.622;7.746;2023-04-24T08:57:09;11.15;;;6.92;;
77304;SDS011;66364;52.622;7.746;2023-04-24T08:59:10;7.53;;;6.80;;
77304;SDS011;66364;52.622;7.746;2023-04-24T09:01:12;8.78;;;8.00;;
77304;SDS011;66364;52.622;7.746;2023-04-24T09:03:14;7.83;;;7.12;;
77304;SDS011;66364;52.622;7.746;2023-04-24T09:05:16;7.42;;;6.62;;
77304;SDS011;66364;52.622;7.746;2023-04-24T09:07:18;7.58;;;6.87;;
77304;SDS011;66364;52.622;7.746;2023-04-24T09:09:22;6.78;;;6.17;;
77304;SDS011;66364;52.622;7.746;2023-04-24T09:11:25;6.65;;;6.00;;
77304;SDS011;66364;52.622;7.746;2023-04-24T09:13:27;6.47;;;5.87;;
77304;SDS011;66364;52.622;7.746;2023-04-24T09:15:29;10.13;;;7.78;;
77304;SDS011;66364;52.622;7.746;2023-04-24T09:17:31;6.60;;;5.90;;
77304;SDS011;66364;52.622;7.746;2023-04-24T09:19:34;6.58;;;5.72;;
77304;SDS011;66364;52.622;7.746;2023-04-24T09:21:36;6.35;;;5.75;;
77304;SDS011;66364;52.622;7.746;2023-04-24T09:23:37;5.80;;;5.30;;
77304;SDS011;66364;52.622;7.746;2023-04-24T09:25:39;6.25;;;5.55;;
77304;SDS011;66364;52.622;7.746;2023-04-24T09:27:41;6.10;;;5.50;;
77304;SDS011;66364;52.622;7.746;2023-04-24T09:29:56;5.65;;;5.25;;
77304;SDS011;66364;52.622;7.746;2023-04-24T09:32:17;6.20;;;5.42;;
77304;SDS011;66364;52.622;7.746;2023-04-24T09:34:18;6.03;;;5.42;;
77304;SDS011;66364;52.622;7.746;2023-04-24T09:36:28;6.53;;;6.03;;
77304;SDS011;66364;52.622;7.746;2023-04-24T09:38:38;7.10;;;6.40;;
77304;SDS011;66364;52.622;7.746;2023-04-24T09:40:39;6.83;;;6.15;;
77304;SDS011;66364;52.622;7.746;2023-04-24T09:42:46;7.90;;;6.17;;
77304;SDS011;66364;52.622;7.746;2023-04-24T09:44:57;6.35;;;5.80;;
77304;SDS011;66364;52.622;7.746;2023-04-24T09:46:59;7.40;;;5.80;;
77304;SDS011;66364;52.622;7.746;2023-04-24T09:49:11;10.10;;;6.33;;
77304;SDS011;66364;52.622;7.746;2023-04-24T09:51:16;6.65;;;6.05;;
77304;SDS011;66364;52.622;7.746;2023-04-24T09:53:17;5.62;;;5.12;;
77304;SDS011;66364;52.622;7.746;2023-04-24T09:55:21;6.67;;;6.08;;
77304;SDS011;66364;52.622;7.746;2023-04-24T09:57:23;7.53;;;6.80;;
77304;SDS011;66364;52.622;7.746;2023-04-24T09:59:24;7.30;;;6.60;;
77304;SDS011;66364;52.622;7.746;2023-04-24T10:01:31;7.50;;;6.70;;
77304;SDS011;66364;52.622;7.746;2023-04-24T10:03:33;7.97;;;6.62;;
77304;SDS011;66364;52.622;7.746;2023-04-24T10:05:35;6.35;;;5.75;;
77304;SDS011;66364;52.622;7.746;2023-04-24T10:07:39;7.10;;;6.40;;
77304;SDS011;66364;52.622;7.746;2023-04-24T10:09:40;5.83;;;5.28;;
77304;SDS011;66364;52.622;7.746;2023-04-24T10:11:46;8.98;;;5.72;;
77304;SDS011;66364;52.622;7.746;2023-04-24T10:13:46;7.65;;;6.85;;
77304;SDS011;66364;52.622;7.746;2023-04-24T10:15:47;5.58;;;4.72;;
77304;SDS011;66364;52.622;7.746;2023-04-24T10:17:50;3.98;;;3.58;;
77304;SDS011;66364;52.622;7.746;2023-04-24T10:19:52;4.70;;;4.30;;
77304;SDS011;66364;52.622;7.746;2023-04-24T10:21:53;4.45;;;3.70;;
77304;SDS011;66364;52.622;7.746;2023-04-24T10:23:57;3.33;;;3.00;;
77304;SDS011;66364;52.622;7.746;2023-04-24T10:26:02;4.12;;;3.08;;
77304;SDS011;66364;52.622;7.746;2023-04-24T10:28:04;4.08;;;3.60;;
77304;SDS011;66364;52.622;7.746;2023-04-24T10:30:06;4.78;;;4.30;;
77304;SDS011;66364;52.622;7.746;2023-04-24T10:32:08;5.12;;;4.70;;
77304;SDS011;66364;52.622;7.746;2023-04-24T10:34:09;4.50;;;4.10;;
77304;SDS011;66364;52.622;7.746;2023-04-24T10:36:10;6.83;;;5.97;;
77304;SDS011;66364;52.622;7.746;2023-04-24T10:38:13;6.45;;;4.65;;
77304;SDS011;66364;52.622;7.746;2023-04-24T10:40:18;6.12;;;5.55;;
77304;SDS011;66364;52.622;7.746;2023-04-24T10:42:21;5.45;;;4.95;;
77304;SDS011;66364;52.622;7.746;2023-04-24T10:44:22;6.42;;;5.83;;
77304;SDS011;66364;52.622;7.746;2023-04-24T10:46:23;6.10;;;5.50;;
77304;SDS011;66364;52.622;7.746;2023-04-24T10:48:28;7.20;;;6.50;;
77304;SDS011;66364;52.622;7.746;2023-04-24T10:50:52;7.53;;;6.50;;
77304;SDS011;66364;52.622;7.746;2023-04-24T10:52:46;8.33;;;6.62;;
77304;SDS011;66364;52.622;7.746;2023-04-24T10:54:48;8.63;;;7.72;;
77304;SDS011;66364;52.622;7.746;2023-04-24T10:56:50;8.80;;;6.90;;
77304;SDS011;66364;52.622;7.746;2023-04-24T10:58:52;9.95;;;7.60;;
77304;SDS011;66364;52.622;7.746;2023-04-24T11:00:58;7.45;;;6.17;;
77304;SDS011;66364;52.622;7.746;2023-04-24T11:02:59;10.40;;;8.63;;
77304;SDS011;66364;52.622;7.746;2023-04-24T11:05:02;9.70;;;8.17;;
77304;SDS011;66364;52.622;7.746;2023-04-24T11:07:04;8.80;;;7.55;;
77304;SDS011;66364;52.622;7.746;2023-04-24T11:09:06;10.18;;;9.08;;
77304;SDS011;66364;52.622;7.746;2023-04-24T11:11:10;10.80;;;9.80;;
77304;SDS011;66364;52.622;7.746;2023-04-24T11:13:14;16.60;;;11.30;;
77304;SDS011;66364;52.622;7.746;2023-04-24T11:15:21;16.48;;;13.22;;
77304;SDS011;66364;52.622;7.746;2023-04-24T11:17:32;16.32;;;12.58;;
77304;SDS011;66364;52.622;7.746;2023-04-24T11:19:36;17.40;;;14.23;;
77304;SDS011;66364;52.622;7.746;2023-04-24T11:21:57;19.40;;;15.78;;
77304;SDS011;66364;52.622;7.746;2023-04-24T11:24:23;17.82;;;15.23;;
77304;SDS011;66364;52.622;7.746;2023-04-24T11:26:29;19.07;;;14.80;;
77304;SDS011;66364;52.622;7.746;2023-04-24T11:28:32;17.37;;;15.03;;
77304;SDS011;66364;52.622;7.746;2023-04-24T11:30:33;21.60;;;15.58;;
77304;SDS011;66364;52.622;7.746;2023-04-24T11:34:41;21.75;;;16.90;;
77304;SDS011;66364;52.622;7.746;2023-04-24T11:36:44;21.23;;;17.80;;
77304;SDS011;66364;52.622;7.746;2023-04-24T11:40:51;19.52;;;15.45;;
77304;SDS011;66364;52.622;7.746;2023-04-24T11:42:52;18.95;;;15.95;;
77304;SDS011;66364;52.622;7.746;2023-04-24T11:44:54;21.50;;;15.53;;
77304;SDS011;66364;52.622;7.746;2023-04-24T11:46:56;19.37;;;14.73;;
77304;SDS011;66364;52.622;7.746;2023-04-24T11:48:57;15.03;;;13.50;;
77304;SDS011;66364;52.622;7.746;2023-04-24T11:51:01;16.17;;;13.00;;
77304;SDS011;66364;52.622;7.746;2023-04-24T11:53:02;13.38;;;11.97;;
77304;SDS011;66364;52.622;7.746;2023-04-24T11:57:20;12.10;;;10.30;;
77304;SDS011;66364;52.622;7.746;2023-04-24T11:59:22;11.03;;;9.93;;
77304;SDS011;66364;52.622;7.746;2023-04-24T12:01:23;14.68;;;9.85;;
77304;SDS011;66364;52.622;7.746;2023-04-24T12:03:24;12.43;;;10.87;;
77304;SDS011;66364;52.622;7.746;2023-04-24T12:07:46;11.50;;;10.32;;
77304;SDS011;66364;52.622;7.746;2023-04-24T12:09:48;16.23;;;9.70;;
77304;SDS011;66364;52.622;7.746;2023-04-24T12:11:55;14.35;;;10.08;;
77304;SDS011;66364;52.622;7.746;2023-04-24T12:14:18;11.15;;;10.03;;
77304;SDS011;66364;52.622;7.746;2023-04-24T12:16:19;14.18;;;11.10;;
77304;SDS011;66364;52.622;7.746;2023-04-24T12:18:22;12.80;;;11.43;;
77304;SDS011;66364;52.622;7.746;2023-04-24T12:20:23;10.75;;;9.30;;
77304;SDS011;66364;52.622;7.746;2023-04-24T12:22:43;12.55;;;9.68;;
77304;SDS011;66364;52.622;7.746;2023-04-24T12:24:56;11.95;;;8.18;;
77304;SDS011;66364;52.622;7.746;2023-04-24T12:27:00;10.20;;;7.90;;
77304;SDS011;66364;52.622;7.746;2023-04-24T12:29:01;9.93;;;8.00;;